SAS1430 EKCH-ESSA
Flight info
| Callsign | SAS1430 |
|---|---|
| Flight time | 1h 16m |
| Altitude | 37000 |
| Route | KEMAX N851 ROXEN DCT MIKNA N851 PELUP Z226 NILUG |
| Aircraft | A20N/M-SDE2E3FGHIRWXY/LB1 |
Departure
| Time | 2026-04-26 17:16 |
|---|---|
| Airport | Copenhagen Kastrup Airport (EKCH) |
Arrival
| Time | 2026-04-26 18:32 |
|---|---|
| Airport | Stockholm-Arlanda Airport (ESSA) |
| Time | Latitude | Longitude | Altitude | Speed | Heading |
|---|---|---|---|---|---|
| 2026-04-26 16:43 | 55.62697 | 12.64578 | 26 ft | 0 kts | 281° |
| 2026-04-26 17:00 | 55.62696 | 12.64587 | 26 ft | 2 kts | 272° |
| 2026-04-26 17:01 | 55.62699 | 12.64611 | 26 ft | 2 kts | 258° |
| 2026-04-26 17:01 | 55.62701 | 12.64637 | 26 ft | 2 kts | 261° |
| 2026-04-26 17:01 | 55.62703 | 12.64663 | 26 ft | 2 kts | 260° |
| 2026-04-26 17:01 | 55.62706 | 12.64689 | 26 ft | 2 kts | 261° |
| 2026-04-26 17:02 | 55.62709 | 12.64715 | 26 ft | 2 kts | 260° |
| 2026-04-26 17:02 | 55.62711 | 12.64738 | 26 ft | 0 kts | 283° |
| 2026-04-26 17:02 | 55.62709 | 12.64748 | 26 ft | 0 kts | 282° |
| 2026-04-26 17:05 | 55.62709 | 12.64745 | 26 ft | 0 kts | 282° |
| 2026-04-26 17:05 | 55.62710 | 12.64737 | 26 ft | 1 kts | 282° |
| 2026-04-26 17:05 | 55.62711 | 12.64721 | 26 ft | 1 kts | 265° |
| 2026-04-26 17:05 | 55.62705 | 12.64699 | 26 ft | 2 kts | 230° |
| 2026-04-26 17:06 | 55.62690 | 12.64686 | 26 ft | 3 kts | 198° |
| 2026-04-26 17:06 | 55.62664 | 12.64674 | 26 ft | 4 kts | 193° |
| 2026-04-26 17:06 | 55.62632 | 12.64662 | 26 ft | 5 kts | 192° |
| 2026-04-26 17:06 | 55.62590 | 12.64652 | 26 ft | 6 kts | 182° |
| 2026-04-26 17:07 | 55.62540 | 12.64652 | 26 ft | 6 kts | 180° |
| 2026-04-26 17:07 | 55.62495 | 12.64657 | 26 ft | 6 kts | 172° |
| 2026-04-26 17:07 | 55.62447 | 12.64672 | 26 ft | 7 kts | 174° |
| 2026-04-26 17:07 | 55.62405 | 12.64673 | 26 ft | 4 kts | 180° |
| 2026-04-26 17:08 | 55.62371 | 12.64674 | 26 ft | 5 kts | 179° |
| 2026-04-26 17:08 | 55.62331 | 12.64701 | 26 ft | 6 kts | 137° |
| 2026-04-26 17:08 | 55.62296 | 12.64770 | 26 ft | 8 kts | 140° |
| 2026-04-26 17:08 | 55.62238 | 12.64790 | 26 ft | 9 kts | 191° |
| 2026-04-26 17:09 | 55.62178 | 12.64733 | 26 ft | 10 kts | 213° |
| 2026-04-26 17:09 | 55.62136 | 12.64685 | 26 ft | 11 kts | 213° |
| 2026-04-26 17:09 | 55.62042 | 12.64574 | 25 ft | 12 kts | 213° |
| 2026-04-26 17:09 | 55.61963 | 12.64508 | 25 ft | 13 kts | 196° |
| 2026-04-26 17:10 | 55.61872 | 12.64516 | 26 ft | 13 kts | 169° |
| 2026-04-26 17:10 | 55.61782 | 12.64547 | 27 ft | 13 kts | 169° |
| 2026-04-26 17:10 | 55.61690 | 12.64570 | 27 ft | 14 kts | 190° |
| 2026-04-26 17:10 | 55.61602 | 12.64479 | 26 ft | 15 kts | 213° |
| 2026-04-26 17:11 | 55.61512 | 12.64376 | 26 ft | 15 kts | 213° |
| 2026-04-26 17:11 | 55.61426 | 12.64276 | 28 ft | 14 kts | 213° |
| 2026-04-26 17:11 | 55.61337 | 12.64173 | 27 ft | 15 kts | 213° |
| 2026-04-26 17:11 | 55.61239 | 12.64061 | 27 ft | 17 kts | 213° |
| 2026-04-26 17:12 | 55.61024 | 12.63812 | 24 ft | 20 kts | 214° |
| 2026-04-26 17:12 | 55.60903 | 12.63673 | 23 ft | 21 kts | 212° |
| 2026-04-26 17:13 | 55.60652 | 12.63380 | 22 ft | 21 kts | 218° |
| 2026-04-26 17:13 | 55.60543 | 12.63222 | 24 ft | 15 kts | 207° |
| 2026-04-26 17:13 | 55.60469 | 12.63271 | 24 ft | 1 kts | 132° |
| 2026-04-26 17:14 | 55.60465 | 12.63279 | 24 ft | 2 kts | 132° |
| 2026-04-26 17:14 | 55.60415 | 12.63381 | 24 ft | 8 kts | 131° |
| 2026-04-26 17:14 | 55.60419 | 12.63467 | 23 ft | 9 kts | 44° |
| 2026-04-26 17:15 | 55.60733 | 12.63952 | 21 ft | 90 kts | 41° |
| 2026-04-26 17:15 | 55.61390 | 12.64971 | 32 ft | 155 kts | 40° |
| 2026-04-26 17:15 | 55.62216 | 12.66256 | 616 ft | 162 kts | 39° |
| 2026-04-26 17:16 | 55.63068 | 12.67571 | 1273 ft | 170 kts | 39° |
| 2026-04-26 17:16 | 55.63997 | 12.69019 | 1769 ft | 187 kts | 39° |
| 2026-04-26 17:16 | 55.65014 | 12.70616 | 2245 ft | 207 kts | 38° |
| 2026-04-26 17:16 | 55.66164 | 12.72366 | 2760 ft | 229 kts | 38° |
| 2026-04-26 17:17 | 55.67427 | 12.74248 | 3370 ft | 247 kts | 38° |
| 2026-04-26 17:17 | 55.68786 | 12.76266 | 4076 ft | 261 kts | 38° |
| 2026-04-26 17:17 | 55.70195 | 12.78361 | 4862 ft | 271 kts | 37° |
| 2026-04-26 17:17 | 55.71626 | 12.80508 | 5920 ft | 271 kts | 37° |
| 2026-04-26 17:18 | 55.73034 | 12.82617 | 6967 ft | 270 kts | 37° |
| 2026-04-26 17:18 | 55.74474 | 12.84778 | 7889 ft | 275 kts | 38° |
| 2026-04-26 17:18 | 55.75921 | 12.87023 | 8732 ft | 282 kts | 38° |
| 2026-04-26 17:18 | 55.77380 | 12.89321 | 9716 ft | 283 kts | 38° |
| 2026-04-26 17:19 | 55.80347 | 12.94025 | 11235 ft | 300 kts | 36° |
| 2026-04-26 17:19 | 55.81926 | 12.96512 | 12022 ft | 307 kts | 35° |
| 2026-04-26 17:19 | 55.83508 | 12.99009 | 12887 ft | 310 kts | 34° |
| 2026-04-26 17:20 | 55.85135 | 13.01572 | 13751 ft | 313 kts | 34° |
| 2026-04-26 17:20 | 55.86195 | 13.03243 | 14288 ft | 315 kts | 34° |
| 2026-04-26 17:20 | 55.88394 | 13.06717 | 15362 ft | 320 kts | 34° |
| 2026-04-26 17:20 | 55.90053 | 13.09341 | 16141 ft | 323 kts | 34° |
| 2026-04-26 17:21 | 55.91752 | 13.12034 | 16903 ft | 327 kts | 33° |
| 2026-04-26 17:21 | 55.93444 | 13.14719 | 17648 ft | 330 kts | 33° |
| 2026-04-26 17:21 | 55.95168 | 13.17457 | 18389 ft | 334 kts | 33° |
| 2026-04-26 17:21 | 55.96895 | 13.20203 | 19080 ft | 337 kts | 33° |
| 2026-04-26 17:22 | 55.98649 | 13.22995 | 19748 ft | 342 kts | 33° |
| 2026-04-26 17:22 | 56.00426 | 13.25830 | 20408 ft | 346 kts | 33° |
| 2026-04-26 17:22 | 56.02219 | 13.28697 | 21079 ft | 349 kts | 33° |
| 2026-04-26 17:22 | 56.04026 | 13.31588 | 21716 ft | 352 kts | 33° |
| 2026-04-26 17:23 | 56.05864 | 13.34532 | 22334 ft | 356 kts | 33° |
| 2026-04-26 17:23 | 56.07703 | 13.37481 | 22929 ft | 360 kts | 33° |
| 2026-04-26 17:23 | 56.09560 | 13.40465 | 23504 ft | 363 kts | 32° |
| 2026-04-26 17:23 | 56.11465 | 13.43539 | 24088 ft | 367 kts | 33° |
| 2026-04-26 17:24 | 56.13378 | 13.46499 | 24642 ft | 369 kts | 31° |
| 2026-04-26 17:24 | 56.15362 | 13.49440 | 25177 ft | 372 kts | 30° |
| 2026-04-26 17:24 | 56.17372 | 13.52409 | 25694 ft | 377 kts | 30° |
| 2026-04-26 17:24 | 56.19392 | 13.55408 | 26199 ft | 380 kts | 31° |
| 2026-04-26 17:25 | 56.21443 | 13.58472 | 26691 ft | 384 kts | 31° |
| 2026-04-26 17:25 | 56.23506 | 13.61566 | 27168 ft | 388 kts | 31° |
| 2026-04-26 17:25 | 56.25557 | 13.64650 | 27625 ft | 392 kts | 31° |
| 2026-04-26 17:25 | 56.27662 | 13.67825 | 28063 ft | 396 kts | 32° |
| 2026-04-26 17:26 | 56.29779 | 13.71022 | 28486 ft | 400 kts | 32° |
| 2026-04-26 17:26 | 56.31914 | 13.74253 | 28907 ft | 403 kts | 32° |
| 2026-04-26 17:26 | 56.34063 | 13.77502 | 29211 ft | 410 kts | 32° |
| 2026-04-26 17:26 | 56.36269 | 13.80831 | 29391 ft | 419 kts | 32° |
| 2026-04-26 17:27 | 56.38478 | 13.84175 | 29686 ft | 424 kts | 32° |
| 2026-04-26 17:27 | 56.40737 | 13.87608 | 30064 ft | 427 kts | 32° |
| 2026-04-26 17:27 | 56.43013 | 13.91074 | 30441 ft | 430 kts | 32° |
| 2026-04-26 17:27 | 56.45269 | 13.94515 | 30854 ft | 431 kts | 32° |
| 2026-04-26 17:28 | 56.47559 | 13.98015 | 31369 ft | 429 kts | 32° |
| 2026-04-26 17:28 | 56.49824 | 14.01485 | 31882 ft | 428 kts | 32° |
| 2026-04-26 17:28 | 56.52085 | 14.04957 | 32376 ft | 426 kts | 32° |
| 2026-04-26 17:28 | 56.54351 | 14.08431 | 32835 ft | 425 kts | 32° |
| 2026-04-26 17:29 | 56.56588 | 14.11862 | 33255 ft | 424 kts | 32° |
| 2026-04-26 17:29 | 56.58080 | 14.14155 | 33524 ft | 423 kts | 32° |
| 2026-04-26 17:29 | 56.61093 | 14.18792 | 34006 ft | 424 kts | 32° |
| 2026-04-26 17:29 | 56.63332 | 14.22244 | 34304 ft | 425 kts | 32° |
| 2026-04-26 17:30 | 56.65563 | 14.25688 | 34599 ft | 426 kts | 32° |
| 2026-04-26 17:30 | 56.67847 | 14.29222 | 34900 ft | 427 kts | 32° |
| 2026-04-26 17:30 | 56.70099 | 14.32711 | 35140 ft | 429 kts | 32° |
| 2026-04-26 17:30 | 56.72384 | 14.36254 | 35169 ft | 436 kts | 32° |
| 2026-04-26 17:31 | 56.77052 | 14.43518 | 35172 ft | 444 kts | 32° |
| 2026-04-26 17:31 | 56.81727 | 14.50834 | 35172 ft | 444 kts | 32° |
| 2026-04-26 17:32 | 56.86386 | 14.58148 | 35171 ft | 443 kts | 32° |
| 2026-04-26 17:32 | 56.90917 | 14.65278 | 35171 ft | 442 kts | 33° |
| 2026-04-26 17:33 | 56.95607 | 14.72682 | 35171 ft | 442 kts | 33° |
| 2026-04-26 17:34 | 57.02554 | 14.83694 | 35171 ft | 441 kts | 33° |
| 2026-04-26 17:34 | 57.07158 | 14.91024 | 35172 ft | 440 kts | 33° |
| 2026-04-26 17:35 | 57.11778 | 14.98405 | 35171 ft | 440 kts | 33° |
| 2026-04-26 17:35 | 57.16399 | 15.05812 | 35165 ft | 440 kts | 33° |
| 2026-04-26 17:36 | 57.20972 | 15.13169 | 35157 ft | 439 kts | 33° |
| 2026-04-26 17:36 | 57.25578 | 15.20602 | 35151 ft | 439 kts | 33° |
| 2026-04-26 17:37 | 57.30170 | 15.28042 | 35147 ft | 438 kts | 32° |
| 2026-04-26 17:37 | 57.34708 | 15.35415 | 35146 ft | 438 kts | 32° |
| 2026-04-26 17:38 | 57.41539 | 15.46568 | 35145 ft | 436 kts | 32° |
| 2026-04-26 17:38 | 57.46083 | 15.54017 | 35145 ft | 435 kts | 32° |
| 2026-04-26 17:39 | 57.50589 | 15.61430 | 35145 ft | 434 kts | 32° |
| 2026-04-26 17:39 | 57.55100 | 15.68873 | 35145 ft | 434 kts | 33° |
| 2026-04-26 17:40 | 57.58863 | 15.75104 | 35145 ft | 434 kts | 33° |
| 2026-04-26 17:40 | 57.64104 | 15.83812 | 35145 ft | 433 kts | 33° |
| 2026-04-26 17:41 | 57.68593 | 15.91299 | 35144 ft | 433 kts | 32° |
| 2026-04-26 17:41 | 57.73075 | 15.98799 | 35139 ft | 432 kts | 32° |
| 2026-04-26 17:42 | 57.77503 | 16.06235 | 35133 ft | 432 kts | 32° |
| 2026-04-26 17:42 | 57.81963 | 16.13750 | 35126 ft | 431 kts | 32° |
| 2026-04-26 17:43 | 57.86418 | 16.21281 | 35121 ft | 431 kts | 32° |
| 2026-04-26 17:43 | 57.90860 | 16.28816 | 35118 ft | 431 kts | 32° |
| 2026-04-26 17:44 | 57.95314 | 16.36398 | 35117 ft | 431 kts | 32° |
| 2026-04-26 17:44 | 57.99754 | 16.43986 | 35116 ft | 431 kts | 32° |
| 2026-04-26 17:45 | 58.04171 | 16.51561 | 35116 ft | 430 kts | 32° |
| 2026-04-26 17:45 | 58.08577 | 16.59143 | 35116 ft | 430 kts | 32° |
| 2026-04-26 17:46 | 58.12755 | 16.66367 | 34876 ft | 425 kts | 33° |
| 2026-04-26 17:46 | 58.14968 | 16.70203 | 34166 ft | 427 kts | 33° |
| 2026-04-26 17:46 | 58.17166 | 16.74007 | 33301 ft | 430 kts | 33° |
| 2026-04-26 17:47 | 58.19376 | 16.77828 | 32468 ft | 432 kts | 33° |
| 2026-04-26 17:47 | 58.20826 | 16.80339 | 31950 ft | 433 kts | 33° |
| 2026-04-26 17:47 | 58.23781 | 16.85473 | 30926 ft | 432 kts | 33° |
| 2026-04-26 17:47 | 58.26001 | 16.89345 | 30293 ft | 428 kts | 33° |
| 2026-04-26 17:48 | 58.28163 | 16.93129 | 29726 ft | 423 kts | 33° |
| 2026-04-26 17:48 | 58.30304 | 16.96881 | 29255 ft | 417 kts | 33° |
| 2026-04-26 17:48 | 58.32427 | 17.00600 | 29108 ft | 417 kts | 33° |
| 2026-04-26 17:48 | 58.34555 | 17.04327 | 29106 ft | 418 kts | 33° |
| 2026-04-26 17:49 | 58.38830 | 17.11843 | 29044 ft | 415 kts | 33° |
| 2026-04-26 17:49 | 58.40930 | 17.15554 | 28605 ft | 411 kts | 33° |
| 2026-04-26 17:49 | 58.43007 | 17.19225 | 27936 ft | 410 kts | 33° |
| 2026-04-26 17:50 | 58.45042 | 17.22827 | 27344 ft | 407 kts | 33° |
| 2026-04-26 17:50 | 58.47025 | 17.26347 | 26978 ft | 398 kts | 33° |
| 2026-04-26 17:50 | 58.49057 | 17.29972 | 26460 ft | 385 kts | 33° |
| 2026-04-26 17:50 | 58.50955 | 17.33365 | 25837 ft | 370 kts | 32° |
| 2026-04-26 17:51 | 58.52802 | 17.36665 | 25208 ft | 356 kts | 32° |
| 2026-04-26 17:51 | 58.54568 | 17.39817 | 24584 ft | 345 kts | 31° |
| 2026-04-26 17:51 | 58.56290 | 17.42893 | 23957 ft | 335 kts | 31° |
| 2026-04-26 17:51 | 58.57843 | 17.45667 | 23375 ft | 326 kts | 31° |
| 2026-04-26 17:52 | 58.59522 | 17.48665 | 22698 ft | 319 kts | 31° |
| 2026-04-26 17:52 | 58.61118 | 17.51519 | 21981 ft | 314 kts | 31° |
| 2026-04-26 17:52 | 58.62703 | 17.54353 | 21249 ft | 310 kts | 31° |
| 2026-04-26 17:52 | 58.64218 | 17.57074 | 20546 ft | 306 kts | 31° |
| 2026-04-26 17:53 | 58.65719 | 17.59769 | 19843 ft | 301 kts | 31° |
| 2026-04-26 17:53 | 58.67228 | 17.62486 | 19125 ft | 299 kts | 31° |
| 2026-04-26 17:53 | 58.68750 | 17.65223 | 18655 ft | 298 kts | 32° |
| 2026-04-26 17:54 | 58.71734 | 17.70623 | 17936 ft | 290 kts | 32° |
| 2026-04-26 17:54 | 58.73193 | 17.73261 | 17531 ft | 288 kts | 32° |
| 2026-04-26 17:54 | 58.74649 | 17.75897 | 17099 ft | 287 kts | 32° |
| 2026-04-26 17:54 | 58.76103 | 17.78533 | 16646 ft | 287 kts | 33° |
| 2026-04-26 17:55 | 58.77542 | 17.81147 | 16206 ft | 286 kts | 33° |
| 2026-04-26 17:55 | 58.78989 | 17.83778 | 15763 ft | 286 kts | 33° |
| 2026-04-26 17:55 | 58.80445 | 17.86288 | 15333 ft | 282 kts | 29° |
| 2026-04-26 17:55 | 58.82005 | 17.88510 | 15102 ft | 275 kts | 24° |
| 2026-04-26 17:56 | 58.83641 | 17.90393 | 15099 ft | 274 kts | 19° |
| 2026-04-26 17:56 | 58.87054 | 17.93672 | 15097 ft | 273 kts | 18° |
| 2026-04-26 17:57 | 58.90471 | 17.96897 | 15096 ft | 273 kts | 18° |
| 2026-04-26 17:57 | 58.92168 | 17.98502 | 15096 ft | 274 kts | 18° |
| 2026-04-26 17:57 | 58.93877 | 18.00119 | 15096 ft | 274 kts | 18° |
| 2026-04-26 17:57 | 58.95573 | 18.01729 | 15060 ft | 270 kts | 18° |
| 2026-04-26 17:58 | 59.00626 | 18.06518 | 13730 ft | 271 kts | 18° |
| 2026-04-26 17:59 | 59.03983 | 18.09715 | 12842 ft | 272 kts | 19° |
| 2026-04-26 17:59 | 59.05656 | 18.11311 | 12407 ft | 272 kts | 19° |
| 2026-04-26 17:59 | 59.07321 | 18.12894 | 11979 ft | 272 kts | 18° |
| 2026-04-26 17:59 | 59.09052 | 18.14235 | 11554 ft | 269 kts | 12° |
| 2026-04-26 18:00 | 59.10770 | 18.15111 | 11171 ft | 265 kts | 6° |
| 2026-04-26 18:00 | 59.12556 | 18.15581 | 10794 ft | 261 kts | 0° |
| 2026-04-26 18:00 | 59.14361 | 18.15818 | 10403 ft | 259 kts | 359° |
| 2026-04-26 18:00 | 59.16134 | 18.16016 | 10015 ft | 259 kts | 359° |
| 2026-04-26 18:01 | 59.17891 | 18.16212 | 9637 ft | 258 kts | 359° |
| 2026-04-26 18:01 | 59.19622 | 18.16408 | 9262 ft | 257 kts | 359° |
| 2026-04-26 18:01 | 59.21413 | 18.16613 | 8878 ft | 255 kts | 359° |
| 2026-04-26 18:01 | 59.23164 | 18.16816 | 8503 ft | 254 kts | 359° |
| 2026-04-26 18:02 | 59.24923 | 18.17022 | 8135 ft | 252 kts | 359° |
| 2026-04-26 18:02 | 59.26076 | 18.17158 | 7891 ft | 251 kts | 360° |
| 2026-04-26 18:02 | 59.28404 | 18.17431 | 7394 ft | 249 kts | 360° |
| 2026-04-26 18:02 | 59.30118 | 18.17633 | 7113 ft | 246 kts | 360° |
| 2026-04-26 18:03 | 59.31826 | 18.17836 | 7097 ft | 242 kts | 360° |
| 2026-04-26 18:03 | 59.33456 | 18.18035 | 7091 ft | 227 kts | 359° |
| 2026-04-26 18:03 | 59.35012 | 18.18220 | 7095 ft | 227 kts | 359° |
| 2026-04-26 18:03 | 59.36581 | 18.18403 | 7097 ft | 227 kts | 359° |
| 2026-04-26 18:04 | 59.38150 | 18.18586 | 7096 ft | 227 kts | 359° |
| 2026-04-26 18:04 | 59.39737 | 18.18743 | 7094 ft | 226 kts | 354° |
| 2026-04-26 18:04 | 59.41206 | 18.17917 | 7084 ft | 222 kts | 326° |
| 2026-04-26 18:05 | 59.42418 | 18.12575 | 7025 ft | 232 kts | 266° |
| 2026-04-26 18:05 | 59.41776 | 18.09682 | 6847 ft | 239 kts | 235° |
| 2026-04-26 18:05 | 59.40431 | 18.07720 | 6715 ft | 241 kts | 211° |
| 2026-04-26 18:05 | 59.38846 | 18.06622 | 6455 ft | 243 kts | 199° |
| 2026-04-26 18:06 | 59.37207 | 18.05871 | 6149 ft | 245 kts | 197° |
| 2026-04-26 18:06 | 59.35553 | 18.05185 | 5942 ft | 242 kts | 196° |
| 2026-04-26 18:06 | 59.33893 | 18.04512 | 5816 ft | 243 kts | 196° |
| 2026-04-26 18:06 | 59.32231 | 18.03838 | 5691 ft | 244 kts | 196° |
| 2026-04-26 18:07 | 59.30638 | 18.02842 | 5551 ft | 235 kts | 218° |
| 2026-04-26 18:07 | 59.29559 | 18.00633 | 5421 ft | 219 kts | 251° |
| 2026-04-26 18:07 | 59.29089 | 17.97864 | 5260 ft | 213 kts | 264° |
| 2026-04-26 18:07 | 59.29003 | 17.95994 | 5163 ft | 205 kts | 282° |
| 2026-04-26 18:08 | 59.29530 | 17.92469 | 4999 ft | 199 kts | 303° |
| 2026-04-26 18:08 | 59.30474 | 17.90610 | 4871 ft | 195 kts | 329° |
| 2026-04-26 18:08 | 59.31680 | 17.89401 | 4749 ft | 196 kts | 335° |
| 2026-04-26 18:08 | 59.32920 | 17.88340 | 4625 ft | 194 kts | 336° |
| 2026-04-26 18:09 | 59.34148 | 17.87322 | 4490 ft | 185 kts | 336° |
| 2026-04-26 18:09 | 59.35302 | 17.86368 | 4419 ft | 173 kts | 337° |
| 2026-04-26 18:09 | 59.36404 | 17.85934 | 4405 ft | 157 kts | 356° |
| 2026-04-26 18:09 | 59.37455 | 17.86101 | 4306 ft | 146 kts | 3° |
| 2026-04-26 18:10 | 59.38450 | 17.86390 | 4230 ft | 146 kts | 4° |
| 2026-04-26 18:10 | 59.39460 | 17.86720 | 4153 ft | 146 kts | 5° |
| 2026-04-26 18:10 | 59.40459 | 17.87061 | 4080 ft | 146 kts | 5° |
| 2026-04-26 18:10 | 59.41458 | 17.87408 | 4005 ft | 146 kts | 5° |
| 2026-04-26 18:11 | 59.42446 | 17.87758 | 3996 ft | 145 kts | 5° |
| 2026-04-26 18:11 | 59.43447 | 17.88116 | 3906 ft | 145 kts | 5° |
| 2026-04-26 18:11 | 59.44439 | 17.88474 | 3712 ft | 144 kts | 6° |
| 2026-04-26 18:11 | 59.45421 | 17.88830 | 3525 ft | 143 kts | 6° |
| 2026-04-26 18:12 | 59.46394 | 17.89183 | 3338 ft | 143 kts | 6° |
| 2026-04-26 18:12 | 59.47374 | 17.89539 | 3152 ft | 143 kts | 6° |
| 2026-04-26 18:12 | 59.48349 | 17.89894 | 2968 ft | 143 kts | 6° |
| 2026-04-26 18:12 | 59.49326 | 17.90249 | 2777 ft | 142 kts | 6° |
| 2026-04-26 18:13 | 59.50297 | 17.90603 | 2589 ft | 142 kts | 6° |
| 2026-04-26 18:13 | 59.51275 | 17.90958 | 2400 ft | 143 kts | 6° |
| 2026-04-26 18:13 | 59.52246 | 17.91311 | 2209 ft | 143 kts | 6° |
| 2026-04-26 18:13 | 59.52906 | 17.91550 | 2079 ft | 144 kts | 6° |
| 2026-04-26 18:14 | 59.54218 | 17.92027 | 1822 ft | 144 kts | 6° |
| 2026-04-26 18:14 | 59.55195 | 17.92382 | 1658 ft | 144 kts | 6° |
| 2026-04-26 18:14 | 59.56194 | 17.92745 | 1454 ft | 145 kts | 6° |
| 2026-04-26 18:14 | 59.57148 | 17.93094 | 1240 ft | 132 kts | 5° |
| 2026-04-26 18:15 | 59.58009 | 17.93411 | 1058 ft | 121 kts | 4° |
| 2026-04-26 18:15 | 59.58833 | 17.93717 | 907 ft | 121 kts | 5° |
| 2026-04-26 18:15 | 59.59656 | 17.94028 | 764 ft | 121 kts | 4° |
| 2026-04-26 18:15 | 59.60490 | 17.94324 | 579 ft | 122 kts | 4° |
| 2026-04-26 18:16 | 59.61337 | 17.94609 | 453 ft | 130 kts | 4° |
| 2026-04-26 18:16 | 59.63102 | 17.95267 | 1303 ft | 131 kts | 5° |
| 2026-04-26 18:16 | 59.64058 | 17.95614 | 1485 ft | 153 kts | 5° |
| 2026-04-26 18:17 | 59.65189 | 17.96018 | 1490 ft | 181 kts | 7° |
| 2026-04-26 18:17 | 59.66436 | 17.97056 | 1402 ft | 213 kts | 38° |
| 2026-04-26 18:17 | 59.67219 | 17.99645 | 1906 ft | 226 kts | 73° |
| 2026-04-26 18:17 | 59.67235 | 18.02695 | 2597 ft | 223 kts | 92° |
| 2026-04-26 18:18 | 59.66960 | 18.05707 | 3149 ft | 222 kts | 95° |
| 2026-04-26 18:18 | 59.66622 | 18.08692 | 3560 ft | 224 kts | 96° |
| 2026-04-26 18:18 | 59.66261 | 18.11734 | 3908 ft | 227 kts | 96° |
| 2026-04-26 18:18 | 59.65896 | 18.14788 | 3986 ft | 228 kts | 96° |
| 2026-04-26 18:19 | 59.65398 | 18.17773 | 3974 ft | 234 kts | 117° |
| 2026-04-26 18:19 | 59.64223 | 18.20030 | 3981 ft | 241 kts | 153° |
| 2026-04-26 18:19 | 59.62611 | 18.20832 | 3996 ft | 241 kts | 179° |
| 2026-04-26 18:19 | 59.60959 | 18.20817 | 3993 ft | 239 kts | 185° |
| 2026-04-26 18:20 | 59.59294 | 18.20644 | 3993 ft | 240 kts | 186° |
| 2026-04-26 18:20 | 59.57616 | 18.20450 | 3992 ft | 239 kts | 186° |
| 2026-04-26 18:20 | 59.55970 | 18.20255 | 3990 ft | 239 kts | 186° |
| 2026-04-26 18:20 | 59.54845 | 18.20116 | 3990 ft | 239 kts | 187° |
| 2026-04-26 18:21 | 59.52638 | 18.19849 | 3991 ft | 238 kts | 186° |
| 2026-04-26 18:21 | 59.50955 | 18.19640 | 3992 ft | 244 kts | 186° |
| 2026-04-26 18:21 | 59.49257 | 18.19429 | 3991 ft | 244 kts | 186° |
| 2026-04-26 18:21 | 59.47578 | 18.19222 | 3991 ft | 244 kts | 186° |
| 2026-04-26 18:22 | 59.45879 | 18.19011 | 3990 ft | 244 kts | 186° |
| 2026-04-26 18:22 | 59.44179 | 18.18801 | 3990 ft | 244 kts | 186° |
| 2026-04-26 18:22 | 59.42500 | 18.18601 | 3990 ft | 243 kts | 186° |
| 2026-04-26 18:22 | 59.40821 | 18.18398 | 3989 ft | 243 kts | 187° |
| 2026-04-26 18:23 | 59.39169 | 18.17825 | 3988 ft | 238 kts | 201° |
| 2026-04-26 18:23 | 59.37612 | 18.16772 | 3989 ft | 233 kts | 206° |
| 2026-04-26 18:23 | 59.36107 | 18.15646 | 3989 ft | 233 kts | 206° |
| 2026-04-26 18:23 | 59.34589 | 18.14457 | 3989 ft | 231 kts | 212° |
| 2026-04-26 18:24 | 59.33418 | 18.12516 | 3978 ft | 215 kts | 247° |
| 2026-04-26 18:24 | 59.33042 | 18.09855 | 3985 ft | 198 kts | 282° |
| 2026-04-26 18:24 | 59.33445 | 18.07346 | 3997 ft | 190 kts | 302° |
| 2026-04-26 18:24 | 59.34091 | 18.05096 | 3994 ft | 189 kts | 306° |
| 2026-04-26 18:25 | 59.34792 | 18.02922 | 3990 ft | 188 kts | 311° |
| 2026-04-26 18:25 | 59.35621 | 18.00981 | 3991 ft | 187 kts | 315° |
| 2026-04-26 18:25 | 59.36503 | 17.99107 | 3991 ft | 186 kts | 316° |
| 2026-04-26 18:25 | 59.37391 | 17.97258 | 3991 ft | 186 kts | 316° |
| 2026-04-26 18:26 | 59.38274 | 17.95428 | 3990 ft | 186 kts | 316° |
| 2026-04-26 18:26 | 59.39164 | 17.93583 | 3990 ft | 186 kts | 316° |
| 2026-04-26 18:26 | 59.40059 | 17.91729 | 3990 ft | 186 kts | 317° |
| 2026-04-26 18:26 | 59.41083 | 17.90205 | 3990 ft | 184 kts | 332° |
| 2026-04-26 18:27 | 59.42229 | 17.89111 | 3989 ft | 184 kts | 341° |
| 2026-04-26 18:27 | 59.43477 | 17.88649 | 3889 ft | 186 kts | 355° |
| 2026-04-26 18:27 | 59.44769 | 17.88763 | 3648 ft | 186 kts | 3° |
| 2026-04-26 18:27 | 59.46051 | 17.89106 | 3398 ft | 184 kts | 5° |
| 2026-04-26 18:28 | 59.47314 | 17.89524 | 3153 ft | 182 kts | 6° |
| 2026-04-26 18:28 | 59.48542 | 17.89960 | 2915 ft | 180 kts | 7° |
| 2026-04-26 18:28 | 59.49770 | 17.90405 | 2675 ft | 178 kts | 7° |
| 2026-04-26 18:28 | 59.50981 | 17.90847 | 2438 ft | 176 kts | 7° |
| 2026-04-26 18:29 | 59.52176 | 17.91284 | 2271 ft | 168 kts | 6° |
| 2026-04-26 18:29 | 59.53292 | 17.91691 | 2057 ft | 163 kts | 6° |
| 2026-04-26 18:29 | 59.54396 | 17.92092 | 1808 ft | 159 kts | 6° |
| 2026-04-26 18:29 | 59.55460 | 17.92479 | 1579 ft | 152 kts | 6° |
| 2026-04-26 18:30 | 59.56453 | 17.92842 | 1365 ft | 140 kts | 5° |
| 2026-04-26 18:30 | 59.57364 | 17.93177 | 1185 ft | 127 kts | 2° |
| 2026-04-26 18:30 | 59.58231 | 17.93479 | 1011 ft | 125 kts | 2° |
| 2026-04-26 18:30 | 59.59093 | 17.93784 | 848 ft | 128 kts | 5° |
| 2026-04-26 18:31 | 59.59965 | 17.94116 | 716 ft | 129 kts | 5° |
| 2026-04-26 18:31 | 59.60856 | 17.94448 | 523 ft | 128 kts | 4° |
| 2026-04-26 18:31 | 59.61729 | 17.94758 | 363 ft | 128 kts | 4° |
| 2026-04-26 18:31 | 59.62604 | 17.95065 | 196 ft | 128 kts | 4° |
| 2026-04-26 18:32 | 59.63434 | 17.95358 | 146 ft | 108 kts | 8° |
| 2026-04-26 18:32 | 59.64017 | 17.95574 | 146 ft | 63 kts | 9° |
| 2026-04-26 18:32 | 59.64385 | 17.95695 | 146 ft | 43 kts | 2° |
| 2026-04-26 18:32 | 59.64626 | 17.95602 | 146 ft | 29 kts | 340° |
| 2026-04-26 18:33 | 59.64815 | 17.95472 | 146 ft | 28 kts | 349° |
| 2026-04-26 18:33 | 59.65006 | 17.95513 | 146 ft | 27 kts | 1° |
| 2026-04-26 18:33 | 59.65189 | 17.95435 | 146 ft | 26 kts | 345° |
| 2026-04-26 18:33 | 59.65366 | 17.95340 | 146 ft | 26 kts | 346° |
| 2026-04-26 18:34 | 59.65540 | 17.95249 | 146 ft | 24 kts | 343° |
| 2026-04-26 18:34 | 59.65628 | 17.95202 | 146 ft | 2 kts | 344° |
| 2026-04-26 18:34 | 59.65633 | 17.95200 | 146 ft | 0 kts | 345° |
| 2026-04-26 18:35 | 59.65635 | 17.95199 | 146 ft | 1 kts | 345° |
| 2026-04-26 18:35 | 59.65656 | 17.95187 | 146 ft | 5 kts | 345° |
| 2026-04-26 18:35 | 59.65711 | 17.95155 | 146 ft | 10 kts | 335° |
| 2026-04-26 18:35 | 59.65751 | 17.95031 | 146 ft | 11 kts | 270° |
| 2026-04-26 18:36 | 59.65733 | 17.94892 | 146 ft | 10 kts | 256° |
| 2026-04-26 18:36 | 59.65716 | 17.94750 | 146 ft | 11 kts | 256° |
| 2026-04-26 18:36 | 59.65696 | 17.94594 | 146 ft | 12 kts | 255° |
| 2026-04-26 18:36 | 59.65674 | 17.94424 | 146 ft | 13 kts | 256° |
| 2026-04-26 18:37 | 59.65656 | 17.94281 | 146 ft | 10 kts | 257° |
| 2026-04-26 18:37 | 59.65636 | 17.94128 | 146 ft | 12 kts | 256° |
| 2026-04-26 18:37 | 59.65613 | 17.93946 | 146 ft | 14 kts | 256° |
| 2026-04-26 18:37 | 59.65586 | 17.93741 | 146 ft | 15 kts | 256° |
| 2026-04-26 18:38 | 59.65560 | 17.93523 | 146 ft | 16 kts | 256° |
| 2026-04-26 18:38 | 59.65553 | 17.93478 | 146 ft | 1 kts | 253° |
| 2026-04-26 18:38 | 59.65549 | 17.93450 | 146 ft | 1 kts | 254° |
| 2026-04-26 18:38 | 59.65548 | 17.93444 | 146 ft | 1 kts | 254° |
| 2026-04-26 18:39 | 59.65543 | 17.93401 | 146 ft | 5 kts | 256° |
| 2026-04-26 18:39 | 59.65530 | 17.93299 | 146 ft | 9 kts | 257° |
| 2026-04-26 18:39 | 59.65488 | 17.93200 | 146 ft | 10 kts | 189° |
| 2026-04-26 18:39 | 59.65422 | 17.93260 | 146 ft | 11 kts | 152° |
| 2026-04-26 18:40 | 59.65349 | 17.93300 | 146 ft | 10 kts | 167° |
| 2026-04-26 18:40 | 59.65293 | 17.93256 | 146 ft | 9 kts | 245° |
| 2026-04-26 18:40 | 59.65281 | 17.93191 | 146 ft | 0 kts | 251° |
| 2026-04-26 18:40 | 59.65280 | 17.93189 | 146 ft | 0 kts | 251° |